Terminal Aerodrome Forecast
Issued by NWS

Home | Current Version | Previous Version | Text Only | Print | Product List | Glossary Off
Versions: 1 2 3 4 5 6 7 8 9 10 11 12 13 14

000
FTUS43 KIWX 250500
TAFSBN
TAF
KSBN 250538Z 2506/2606 00000KT P6SM SCT250
     FM251400 20010KT P6SM FEW045 BKN250
     FM260000 18006KT P6SM BKN080=

USA.gov is the U.S. government's official web portal to all federal, state and local government web resources and services.